sensor_id;sensor_type;location;lat;lon;timestamp;temperature;humidity
61253;DHT22;47127;47.516;8.596;2022-08-07T00:00:57;17.90;99.90
61253;DHT22;47127;47.516;8.596;2022-08-07T00:03:23;17.90;99.90
61253;DHT22;47127;47.516;8.596;2022-08-07T00:05:51;17.80;99.90
61253;DHT22;47127;47.516;8.596;2022-08-07T00:08:18;17.80;99.90
61253;DHT22;47127;47.516;8.596;2022-08-07T00:10:44;17.70;99.90
61253;DHT22;47127;47.516;8.596;2022-08-07T00:13:10;17.60;99.90
61253;DHT22;47127;47.516;8.596;2022-08-07T00:15:36;17.70;99.90
61253;DHT22;47127;47.516;8.596;2022-08-07T00:18:02;17.60;99.90
61253;DHT22;47127;47.516;8.596;2022-08-07T00:20:28;17.60;99.90
61253;DHT22;47127;47.516;8.596;2022-08-07T00:22:54;17.60;99.90
61253;DHT22;47127;47.516;8.596;2022-08-07T00:25:19;17.60;99.90
61253;DHT22;47127;47.516;8.596;2022-08-07T00:27:45;17.60;99.90
61253;DHT22;47127;47.516;8.596;2022-08-07T00:30:11;17.50;99.90
61253;DHT22;47127;47.516;8.596;2022-08-07T00:32:37;17.50;99.90
61253;DHT22;47127;47.516;8.596;2022-08-07T00:35:03;17.50;99.90
61253;DHT22;47127;47.516;8.596;2022-08-07T00:37:28;17.40;99.90
61253;DHT22;47127;47.516;8.596;2022-08-07T00:39:54;17.50;99.90
61253;DHT22;47127;47.516;8.596;2022-08-07T00:42:20;17.50;99.90
61253;DHT22;47127;47.516;8.596;2022-08-07T00:44:45;17.40;99.90
61253;DHT22;47127;47.516;8.596;2022-08-07T00:47:11;17.40;99.90
61253;DHT22;47127;47.516;8.596;2022-08-07T00:49:37;17.30;99.90
61253;DHT22;47127;47.516;8.596;2022-08-07T00:52:06;17.20;99.90
61253;DHT22;47127;47.516;8.596;2022-08-07T00:54:32;17.20;99.90
61253;DHT22;47127;47.516;8.596;2022-08-07T00:56:58;17.30;99.90
61253;DHT22;47127;47.516;8.596;2022-08-07T00:59:24;17.30;99.90
61253;DHT22;47127;47.516;8.596;2022-08-07T01:01:49;17.30;99.90
61253;DHT22;47127;47.516;8.596;2022-08-07T01:04:16;17.40;99.90
61253;DHT22;47127;47.516;8.596;2022-08-07T01:06:43;17.50;99.90
61253;DHT22;47127;47.516;8.596;2022-08-07T01:09:09;17.50;99.90
61253;DHT22;47127;47.516;8.596;2022-08-07T01:11:34;17.40;99.90
61253;DHT22;47127;47.516;8.596;2022-08-07T01:14:00;17.40;99.90
61253;DHT22;47127;47.516;8.596;2022-08-07T01:16:27;17.40;99.90
61253;DHT22;47127;47.516;8.596;2022-08-07T01:18:53;17.40;99.90
61253;DHT22;47127;47.516;8.596;2022-08-07T01:21:19;17.30;99.90
61253;DHT22;47127;47.516;8.596;2022-08-07T01:23:50;17.30;99.90
61253;DHT22;47127;47.516;8.596;2022-08-07T01:26:17;17.20;99.90
61253;DHT22;47127;47.516;8.596;2022-08-07T01:28:49;17.10;99.90
61253;DHT22;47127;47.516;8.596;2022-08-07T01:31:16;17.10;99.90
61253;DHT22;47127;47.516;8.596;2022-08-07T01:33:43;17.10;99.90
61253;DHT22;47127;47.516;8.596;2022-08-07T01:36:09;17.10;99.90
61253;DHT22;47127;47.516;8.596;2022-08-07T01:38:37;17.00;99.90
61253;DHT22;47127;47.516;8.596;2022-08-07T01:41:04;17.00;99.90
61253;DHT22;47127;47.516;8.596;2022-08-07T01:43:31;16.90;99.90
61253;DHT22;47127;47.516;8.596;2022-08-07T01:45:58;17.00;99.90
61253;DHT22;47127;47.516;8.596;2022-08-07T01:48:24;17.00;99.90
61253;DHT22;47127;47.516;8.596;2022-08-07T01:50:59;17.00;99.90
61253;DHT22;47127;47.516;8.596;2022-08-07T01:53:27;17.00;99.90
61253;DHT22;47127;47.516;8.596;2022-08-07T01:55:57;17.00;99.90
61253;DHT22;47127;47.516;8.596;2022-08-07T01:58:29;17.00;99.90
61253;DHT22;47127;47.516;8.596;2022-08-07T02:01:03;17.00;99.90
61253;DHT22;47127;47.516;8.596;2022-08-07T02:03:33;16.80;99.90
61253;DHT22;47127;47.516;8.596;2022-08-07T02:06:06;16.80;99.90
61253;DHT22;47127;47.516;8.596;2022-08-07T02:08:35;16.70;99.90
61253;DHT22;47127;47.516;8.596;2022-08-07T02:11:07;16.60;99.90
61253;DHT22;47127;47.516;8.596;2022-08-07T02:13:34;16.60;99.90
61253;DHT22;47127;47.516;8.596;2022-08-07T02:16:02;16.70;99.90
61253;DHT22;47127;47.516;8.596;2022-08-07T02:18:30;16.70;99.90
61253;DHT22;47127;47.516;8.596;2022-08-07T02:20:57;16.70;99.90
61253;DHT22;47127;47.516;8.596;2022-08-07T02:23:24;16.80;99.90
61253;DHT22;47127;47.516;8.596;2022-08-07T02:25:52;16.80;99.90
61253;DHT22;47127;47.516;8.596;2022-08-07T02:28:19;16.70;99.90
61253;DHT22;47127;47.516;8.596;2022-08-07T02:30:46;16.80;99.90
61253;DHT22;47127;47.516;8.596;2022-08-07T02:33:13;16.70;99.90
61253;DHT22;47127;47.516;8.596;2022-08-07T02:35:40;16.70;99.90
61253;DHT22;47127;47.516;8.596;2022-08-07T02:38:07;16.80;99.90
61253;DHT22;47127;47.516;8.596;2022-08-07T02:40:34;16.80;99.90
61253;DHT22;47127;47.516;8.596;2022-08-07T02:43:04;16.80;99.90
61253;DHT22;47127;47.516;8.596;2022-08-07T02:45:31;16.70;99.90
61253;DHT22;47127;47.516;8.596;2022-08-07T02:47:57;16.70;99.90
61253;DHT22;47127;47.516;8.596;2022-08-07T02:50:23;16.80;99.90
61253;DHT22;47127;47.516;8.596;2022-08-07T02:53:00;16.80;99.90
61253;DHT22;47127;47.516;8.596;2022-08-07T02:55:30;16.70;99.90
61253;DHT22;47127;47.516;8.596;2022-08-07T02:58:02;16.70;99.90
61253;DHT22;47127;47.516;8.596;2022-08-07T03:00:29;16.70;99.90
61253;DHT22;47127;47.516;8.596;2022-08-07T03:02:57;16.80;99.90
61253;DHT22;47127;47.516;8.596;2022-08-07T03:05:24;16.70;99.90
61253;DHT22;47127;47.516;8.596;2022-08-07T03:07:50;16.70;99.90
61253;DHT22;47127;47.516;8.596;2022-08-07T03:10:16;16.60;99.90
61253;DHT22;47127;47.516;8.596;2022-08-07T03:12:44;16.60;99.90
61253;DHT22;47127;47.516;8.596;2022-08-07T03:15:11;16.70;99.90
61253;DHT22;47127;47.516;8.596;2022-08-07T03:17:37;16.70;99.90
61253;DHT22;47127;47.516;8.596;2022-08-07T03:20:04;16.70;99.90
61253;DHT22;47127;47.516;8.596;2022-08-07T03:22:30;16.70;99.90
61253;DHT22;47127;47.516;8.596;2022-08-07T03:24:58;16.80;99.90
61253;DHT22;47127;47.516;8.596;2022-08-07T03:27:24;16.90;99.90
61253;DHT22;47127;47.516;8.596;2022-08-07T03:29:51;16.90;99.90
61253;DHT22;47127;47.516;8.596;2022-08-07T03:32:31;16.70;99.90
61253;DHT22;47127;47.516;8.596;2022-08-07T03:35:01;16.70;99.90
61253;DHT22;47127;47.516;8.596;2022-08-07T03:37:30;16.80;99.90
61253;DHT22;47127;47.516;8.596;2022-08-07T03:39:56;16.80;99.90
61253;DHT22;47127;47.516;8.596;2022-08-07T03:42:23;16.90;99.90
61253;DHT22;47127;47.516;8.596;2022-08-07T03:44:49;16.90;99.90
61253;DHT22;47127;47.516;8.596;2022-08-07T03:47:15;17.00;99.90
61253;DHT22;47127;47.516;8.596;2022-08-07T03:49:44;17.00;99.90
61253;DHT22;47127;47.516;8.596;2022-08-07T03:52:11;17.00;99.90
61253;DHT22;47127;47.516;8.596;2022-08-07T03:54:37;17.10;99.90
61253;DHT22;47127;47.516;8.596;2022-08-07T03:57:04;17.10;99.90
61253;DHT22;47127;47.516;8.596;2022-08-07T03:59:30;17.10;99.90
61253;DHT22;47127;47.516;8.596;2022-08-07T04:01:57;17.20;99.90
61253;DHT22;47127;47.516;8.596;2022-08-07T04:04:23;17.30;99.90
61253;DHT22;47127;47.516;8.596;2022-08-07T04:06:50;17.40;99.90
61253;DHT22;47127;47.516;8.596;2022-08-07T04:09:16;17.40;99.90
61253;DHT22;47127;47.516;8.596;2022-08-07T04:11:43;17.50;99.90
61253;DHT22;47127;47.516;8.596;2022-08-07T04:14:09;17.50;99.90
61253;DHT22;47127;47.516;8.596;2022-08-07T04:16:35;17.60;99.90
61253;DHT22;47127;47.516;8.596;2022-08-07T04:19:01;17.60;99.90
61253;DHT22;47127;47.516;8.596;2022-08-07T04:21:27;17.70;99.90
61253;DHT22;47127;47.516;8.596;2022-08-07T04:23:53;17.70;99.90
61253;DHT22;47127;47.516;8.596;2022-08-07T04:26:19;17.70;99.90
61253;DHT22;47127;47.516;8.596;2022-08-07T04:28:45;17.70;99.90
61253;DHT22;47127;47.516;8.596;2022-08-07T04:31:10;17.70;99.90
61253;DHT22;47127;47.516;8.596;2022-08-07T04:33:36;17.80;99.90
61253;DHT22;47127;47.516;8.596;2022-08-07T04:36:04;17.90;99.90
61253;DHT22;47127;47.516;8.596;2022-08-07T04:38:33;17.90;99.90
61253;DHT22;47127;47.516;8.596;2022-08-07T04:40:59;17.90;99.90
61253;DHT22;47127;47.516;8.596;2022-08-07T04:43:34;18.00;99.90
61253;DHT22;47127;47.516;8.596;2022-08-07T04:51:43;18.10;99.90
61253;DHT22;47127;47.516;8.596;2022-08-07T04:54:21;18.10;99.90
61253;DHT22;47127;47.516;8.596;2022-08-07T04:56:56;18.10;99.90
61253;DHT22;47127;47.516;8.596;2022-08-07T05:02:45;18.10;99.90
61253;DHT22;47127;47.516;8.596;2022-08-07T05:05:29;18.20;99.90
61253;DHT22;47127;47.516;8.596;2022-08-07T05:08:03;18.30;99.90
61253;DHT22;47127;47.516;8.596;2022-08-07T05:10:36;18.30;99.90
61253;DHT22;47127;47.516;8.596;2022-08-07T05:13:07;18.30;99.90
61253;DHT22;47127;47.516;8.596;2022-08-07T05:15:37;18.40;99.90
61253;DHT22;47127;47.516;8.596;2022-08-07T05:18:07;18.30;99.90
61253;DHT22;47127;47.516;8.596;2022-08-07T05:20:38;18.40;99.90
61253;DHT22;47127;47.516;8.596;2022-08-07T05:23:10;18.40;99.90
61253;DHT22;47127;47.516;8.596;2022-08-07T05:25:39;18.40;99.90
61253;DHT22;47127;47.516;8.596;2022-08-07T05:28:07;18.40;99.90
61253;DHT22;47127;47.516;8.596;2022-08-07T05:30:33;18.40;99.90
61253;DHT22;47127;47.516;8.596;2022-08-07T05:33:01;18.50;99.90
61253;DHT22;47127;47.516;8.596;2022-08-07T05:35:28;18.50;99.90
61253;DHT22;47127;47.516;8.596;2022-08-07T05:37:54;18.50;99.90
61253;DHT22;47127;47.516;8.596;2022-08-07T05:40:20;18.50;99.90
61253;DHT22;47127;47.516;8.596;2022-08-07T05:42:46;18.60;99.90
61253;DHT22;47127;47.516;8.596;2022-08-07T05:45:12;18.50;99.90
61253;DHT22;47127;47.516;8.596;2022-08-07T05:47:38;18.60;99.90
61253;DHT22;47127;47.516;8.596;2022-08-07T05:50:05;18.60;99.90
61253;DHT22;47127;47.516;8.596;2022-08-07T05:52:31;18.60;99.90
61253;DHT22;47127;47.516;8.596;2022-08-07T05:54:57;18.60;99.90
61253;DHT22;47127;47.516;8.596;2022-08-07T05:57:23;18.50;99.90
61253;DHT22;47127;47.516;8.596;2022-08-07T05:59:49;18.60;99.90
61253;DHT22;47127;47.516;8.596;2022-08-07T06:02:18;18.50;99.90
61253;DHT22;47127;47.516;8.596;2022-08-07T06:04:50;18.50;99.90
61253;DHT22;47127;47.516;8.596;2022-08-07T06:07:16;18.50;99.90
61253;DHT22;47127;47.516;8.596;2022-08-07T06:09:43;18.60;99.90
61253;DHT22;47127;47.516;8.596;2022-08-07T06:12:09;18.60;99.90
61253;DHT22;47127;47.516;8.596;2022-08-07T06:14:35;18.60;99.90
61253;DHT22;47127;47.516;8.596;2022-08-07T06:17:02;18.50;99.90
61253;DHT22;47127;47.516;8.596;2022-08-07T06:19:28;18.60;99.90
61253;DHT22;47127;47.516;8.596;2022-08-07T06:21:55;18.50;99.90
61253;DHT22;47127;47.516;8.596;2022-08-07T06:24:22;18.50;99.90
61253;DHT22;47127;47.516;8.596;2022-08-07T06:26:47;18.50;99.90
61253;DHT22;47127;47.516;8.596;2022-08-07T06:29:13;18.60;99.90
61253;DHT22;47127;47.516;8.596;2022-08-07T06:31:39;18.60;99.90
61253;DHT22;47127;47.516;8.596;2022-08-07T06:34:04;18.60;99.90
61253;DHT22;47127;47.516;8.596;2022-08-07T06:36:30;18.60;99.90
61253;DHT22;47127;47.516;8.596;2022-08-07T06:38:56;18.50;99.90
61253;DHT22;47127;47.516;8.596;2022-08-07T06:41:32;18.60;99.90
61253;DHT22;47127;47.516;8.596;2022-08-07T06:44:01;18.70;99.90
61253;DHT22;47127;47.516;8.596;2022-08-07T06:46:28;18.70;99.90
61253;DHT22;47127;47.516;8.596;2022-08-07T06:48:54;18.70;99.90
61253;DHT22;47127;47.516;8.596;2022-08-07T06:51:25;18.80;99.90
61253;DHT22;47127;47.516;8.596;2022-08-07T06:53:53;18.80;99.90
61253;DHT22;47127;47.516;8.596;2022-08-07T06:56:22;18.80;99.90
61253;DHT22;47127;47.516;8.596;2022-08-07T06:59:14;18.80;99.90
61253;DHT22;47127;47.516;8.596;2022-08-07T07:01:41;18.70;99.90
61253;DHT22;47127;47.516;8.596;2022-08-07T07:04:08;18.70;99.90
61253;DHT22;47127;47.516;8.596;2022-08-07T07:06:34;18.70;99.90
61253;DHT22;47127;47.516;8.596;2022-08-07T07:09:26;18.70;99.90
61253;DHT22;47127;47.516;8.596;2022-08-07T07:14:46;18.80;99.90
61253;DHT22;47127;47.516;8.596;2022-08-07T07:17:19;18.80;99.90
61253;DHT22;47127;47.516;8.596;2022-08-07T07:19:49;18.80;99.90
61253;DHT22;47127;47.516;8.596;2022-08-07T07:22:18;18.80;99.90
61253;DHT22;47127;47.516;8.596;2022-08-07T07:24:44;19.00;99.90
61253;DHT22;47127;47.516;8.596;2022-08-07T07:27:12;19.00;99.90
61253;DHT22;47127;47.516;8.596;2022-08-07T07:29:44;18.90;99.90
61253;DHT22;47127;47.516;8.596;2022-08-07T07:32:12;18.90;99.90
61253;DHT22;47127;47.516;8.596;2022-08-07T07:34:44;19.10;99.90
61253;DHT22;47127;47.516;8.596;2022-08-07T07:37:11;19.10;99.90
61253;DHT22;47127;47.516;8.596;2022-08-07T07:39:38;19.10;99.90
61253;DHT22;47127;47.516;8.596;2022-08-07T07:42:05;19.10;99.90
61253;DHT22;47127;47.516;8.596;2022-08-07T07:44:35;19.00;99.90
61253;DHT22;47127;47.516;8.596;2022-08-07T07:47:03;19.00;99.90
61253;DHT22;47127;47.516;8.596;2022-08-07T07:49:32;18.90;99.90
61253;DHT22;47127;47.516;8.596;2022-08-07T07:52:00;19.00;99.90
61253;DHT22;47127;47.516;8.596;2022-08-07T07:54:27;19.00;99.90
61253;DHT22;47127;47.516;8.596;2022-08-07T07:56:55;19.10;99.90
61253;DHT22;47127;47.516;8.596;2022-08-07T07:59:21;19.10;99.90
61253;DHT22;47127;47.516;8.596;2022-08-07T08:01:48;19.10;99.90
61253;DHT22;47127;47.516;8.596;2022-08-07T08:04:16;19.00;99.90
61253;DHT22;47127;47.516;8.596;2022-08-07T08:06:44;19.10;99.90
61253;DHT22;47127;47.516;8.596;2022-08-07T08:09:11;19.20;99.90
61253;DHT22;47127;47.516;8.596;2022-08-07T08:11:39;19.20;99.90
61253;DHT22;47127;47.516;8.596;2022-08-07T08:14:04;19.30;99.90
61253;DHT22;47127;47.516;8.596;2022-08-07T08:16:37;19.30;99.90
61253;DHT22;47127;47.516;8.596;2022-08-07T08:19:06;19.40;99.90
61253;DHT22;47127;47.516;8.596;2022-08-07T08:21:33;19.40;99.90
61253;DHT22;47127;47.516;8.596;2022-08-07T08:24:17;19.40;99.90
61253;DHT22;47127;47.516;8.596;2022-08-07T08:27:14;19.40;99.90
61253;DHT22;47127;47.516;8.596;2022-08-07T08:29:50;19.50;99.90
61253;DHT22;47127;47.516;8.596;2022-08-07T08:32:20;19.60;99.90
61253;DHT22;47127;47.516;8.596;2022-08-07T08:34:49;19.70;99.90
61253;DHT22;47127;47.516;8.596;2022-08-07T08:37:17;19.80;99.90
61253;DHT22;47127;47.516;8.596;2022-08-07T08:39:44;19.90;99.90
61253;DHT22;47127;47.516;8.596;2022-08-07T08:42:34;20.00;99.90
61253;DHT22;47127;47.516;8.596;2022-08-07T08:45:04;20.00;99.90
61253;DHT22;47127;47.516;8.596;2022-08-07T08:50:41;20.00;99.90
61253;DHT22;47127;47.516;8.596;2022-08-07T08:56:23;20.20;99.90
61253;DHT22;47127;47.516;8.596;2022-08-07T08:59:01;20.30;99.90
61253;DHT22;47127;47.516;8.596;2022-08-07T09:04:20;20.60;99.90
61253;DHT22;47127;47.516;8.596;2022-08-07T09:07:05;20.60;99.90
61253;DHT22;47127;47.516;8.596;2022-08-07T09:21:15;20.70;99.90
61253;DHT22;47127;47.516;8.596;2022-08-07T09:24:07;20.80;99.90
61253;DHT22;47127;47.516;8.596;2022-08-07T09:26:41;20.90;99.90
61253;DHT22;47127;47.516;8.596;2022-08-07T09:43:35;21.50;99.90
61253;DHT22;47127;47.516;8.596;2022-08-07T09:46:31;21.60;99.90
61253;DHT22;47127;47.516;8.596;2022-08-07T09:49:13;21.70;99.90
61253;DHT22;47127;47.516;8.596;2022-08-07T09:54:25;21.90;99.90
61253;DHT22;47127;47.516;8.596;2022-08-07T09:57:44;22.00;99.90
61253;DHT22;47127;47.516;8.596;2022-08-07T10:00:07;22.20;99.90
61253;DHT22;47127;47.516;8.596;2022-08-07T10:11:08;22.30;99.90
61253;DHT22;47127;47.516;8.596;2022-08-07T10:24:39;22.50;99.90
61253;DHT22;47127;47.516;8.596;2022-08-07T10:30:25;22.70;99.50
61253;DHT22;47127;47.516;8.596;2022-08-07T10:41:35;22.90;99.00
61253;DHT22;47127;47.516;8.596;2022-08-07T10:49:17;22.80;99.20
61253;DHT22;47127;47.516;8.596;2022-08-07T10:52:13;22.70;99.10
61253;DHT22;47127;47.516;8.596;2022-08-07T10:54:58;22.60;99.40
61253;DHT22;47127;47.516;8.596;2022-08-07T10:57:34;22.70;99.60
61253;DHT22;47127;47.516;8.596;2022-08-07T11:00:08;22.70;99.30
61253;DHT22;47127;47.516;8.596;2022-08-07T11:02:45;22.80;99.20
61253;DHT22;47127;47.516;8.596;2022-08-07T11:08:48;23.20;98.30
61253;DHT22;47127;47.516;8.596;2022-08-07T11:11:20;23.20;98.00
61253;DHT22;47127;47.516;8.596;2022-08-07T11:13:50;23.10;98.10
61253;DHT22;47127;47.516;8.596;2022-08-07T11:16:42;23.00;98.50
61253;DHT22;47127;47.516;8.596;2022-08-07T11:19:23;23.20;98.60
61253;DHT22;47127;47.516;8.596;2022-08-07T11:21:56;23.40;97.90
61253;DHT22;47127;47.516;8.596;2022-08-07T11:24:48;23.40;98.00
61253;DHT22;47127;47.516;8.596;2022-08-07T11:27:22;23.30;98.10
61253;DHT22;47127;47.516;8.596;2022-08-07T11:30:04;23.20;98.10
61253;DHT22;47127;47.516;8.596;2022-08-07T11:32:35;23.00;98.40
61253;DHT22;47127;47.516;8.596;2022-08-07T11:35:11;22.90;98.70
61253;DHT22;47127;47.516;8.596;2022-08-07T11:37:58;22.70;98.60
61253;DHT22;47127;47.516;8.596;2022-08-07T11:43:30;22.80;98.70
61253;DHT22;47127;47.516;8.596;2022-08-07T11:46:04;22.80;98.70
61253;DHT22;47127;47.516;8.596;2022-08-07T11:57:32;23.20;98.10
61253;DHT22;47127;47.516;8.596;2022-08-07T12:00:14;23.20;98.00
61253;DHT22;47127;47.516;8.596;2022-08-07T12:05:41;23.40;98.00
61253;DHT22;47127;47.516;8.596;2022-08-07T12:08:43;23.50;98.00
61253;DHT22;47127;47.516;8.596;2022-08-07T12:11:25;23.50;97.40
61253;DHT22;47127;47.516;8.596;2022-08-07T12:13:56;23.40;97.10
61253;DHT22;47127;47.516;8.596;2022-08-07T12:16:34;23.50;97.20
61253;DHT22;47127;47.516;8.596;2022-08-07T12:19:20;23.60;97.20
61253;DHT22;47127;47.516;8.596;2022-08-07T12:22:07;23.50;97.30
61253;DHT22;47127;47.516;8.596;2022-08-07T12:27:36;23.60;97.30
61253;DHT22;47127;47.516;8.596;2022-08-07T12:30:05;23.90;96.40
61253;DHT22;47127;47.516;8.596;2022-08-07T12:32:57;24.00;95.90
61253;DHT22;47127;47.516;8.596;2022-08-07T12:35:25;24.00;95.50
61253;DHT22;47127;47.516;8.596;2022-08-07T12:37:54;24.00;95.60
61253;DHT22;47127;47.516;8.596;2022-08-07T12:40:26;23.80;95.90
61253;DHT22;47127;47.516;8.596;2022-08-07T12:42:56;23.70;96.10
61253;DHT22;47127;47.516;8.596;2022-08-07T12:45:26;24.00;95.50
61253;DHT22;47127;47.516;8.596;2022-08-07T12:56:35;24.30;94.50
61253;DHT22;47127;47.516;8.596;2022-08-07T12:59:06;24.00;94.40
61253;DHT22;47127;47.516;8.596;2022-08-07T13:02:01;24.20;94.50
61253;DHT22;47127;47.516;8.596;2022-08-07T13:08:01;24.30;93.90
61253;DHT22;47127;47.516;8.596;2022-08-07T13:10:48;24.50;93.80
61253;DHT22;47127;47.516;8.596;2022-08-07T13:16:45;24.70;93.20
61253;DHT22;47127;47.516;8.596;2022-08-07T13:19:45;24.90;92.70
61253;DHT22;47127;47.516;8.596;2022-08-07T13:25:09;25.30;91.70
61253;DHT22;47127;47.516;8.596;2022-08-07T13:27:50;25.30;91.70
61253;DHT22;47127;47.516;8.596;2022-08-07T13:30:17;25.40;91.80
61253;DHT22;47127;47.516;8.596;2022-08-07T13:32:55;25.30;90.90
61253;DHT22;47127;47.516;8.596;2022-08-07T13:35:49;25.20;91.40
61253;DHT22;47127;47.516;8.596;2022-08-07T13:43:49;24.40;92.20
61253;DHT22;47127;47.516;8.596;2022-08-07T13:46:20;24.50;91.90
61253;DHT22;47127;47.516;8.596;2022-08-07T13:48:49;24.40;92.10
61253;DHT22;47127;47.516;8.596;2022-08-07T13:51:16;24.40;92.00
61253;DHT22;47127;47.516;8.596;2022-08-07T13:53:50;24.30;92.20
61253;DHT22;47127;47.516;8.596;2022-08-07T13:56:19;24.20;92.60
61253;DHT22;47127;47.516;8.596;2022-08-07T13:58:47;24.10;92.80
61253;DHT22;47127;47.516;8.596;2022-08-07T14:01:37;24.10;93.10
61253;DHT22;47127;47.516;8.596;2022-08-07T14:04:09;24.10;93.00
61253;DHT22;47127;47.516;8.596;2022-08-07T14:06:44;24.00;93.00
61253;DHT22;47127;47.516;8.596;2022-08-07T14:09:17;24.10;93.00
61253;DHT22;47127;47.516;8.596;2022-08-07T14:11:52;24.30;92.60
61253;DHT22;47127;47.516;8.596;2022-08-07T14:14:21;24.40;92.30
61253;DHT22;47127;47.516;8.596;2022-08-07T14:16:53;24.50;91.90
61253;DHT22;47127;47.516;8.596;2022-08-07T14:19:34;24.70;91.40
61253;DHT22;47127;47.516;8.596;2022-08-07T14:22:01;24.70;91.00
61253;DHT22;47127;47.516;8.596;2022-08-07T14:27:04;24.70;91.20
61253;DHT22;47127;47.516;8.596;2022-08-07T14:29:34;24.70;91.40
61253;DHT22;47127;47.516;8.596;2022-08-07T14:32:03;24.70;90.90
61253;DHT22;47127;47.516;8.596;2022-08-07T14:34:33;24.70;91.40
61253;DHT22;47127;47.516;8.596;2022-08-07T14:37:01;24.60;91.00
61253;DHT22;47127;47.516;8.596;2022-08-07T14:39:28;24.50;91.20
61253;DHT22;47127;47.516;8.596;2022-08-07T14:41:56;24.30;91.40
61253;DHT22;47127;47.516;8.596;2022-08-07T14:44:24;24.30;91.40
61253;DHT22;47127;47.516;8.596;2022-08-07T14:46:54;24.30;91.30
61253;DHT22;47127;47.516;8.596;2022-08-07T14:49:26;24.30;91.30
61253;DHT22;47127;47.516;8.596;2022-08-07T14:51:56;24.30;91.40
61253;DHT22;47127;47.516;8.596;2022-08-07T14:54:23;24.40;91.30
61253;DHT22;47127;47.516;8.596;2022-08-07T14:56:53;24.40;91.20
61253;DHT22;47127;47.516;8.596;2022-08-07T14:59:21;24.30;90.50
61253;DHT22;47127;47.516;8.596;2022-08-07T15:01:47;24.40;90.60
61253;DHT22;47127;47.516;8.596;2022-08-07T15:04:14;24.70;91.00
61253;DHT22;47127;47.516;8.596;2022-08-07T15:06:42;24.90;90.20
61253;DHT22;47127;47.516;8.596;2022-08-07T15:09:14;25.00;90.10
61253;DHT22;47127;47.516;8.596;2022-08-07T15:11:59;25.30;90.00
61253;DHT22;47127;47.516;8.596;2022-08-07T15:14:27;25.60;89.50
61253;DHT22;47127;47.516;8.596;2022-08-07T15:17:01;26.10;88.60
61253;DHT22;47127;47.516;8.596;2022-08-07T15:19:34;26.40;87.00
61253;DHT22;47127;47.516;8.596;2022-08-07T15:22:01;26.50;85.80
61253;DHT22;47127;47.516;8.596;2022-08-07T15:24:39;26.40;85.50
61253;DHT22;47127;47.516;8.596;2022-08-07T15:27:10;26.20;86.60
61253;DHT22;47127;47.516;8.596;2022-08-07T15:29:45;26.40;85.60
61253;DHT22;47127;47.516;8.596;2022-08-07T15:32:12;26.80;85.70
61253;DHT22;47127;47.516;8.596;2022-08-07T15:34:47;26.80;85.20
61253;DHT22;47127;47.516;8.596;2022-08-07T15:37:16;26.90;84.90
61253;DHT22;47127;47.516;8.596;2022-08-07T15:39:49;27.20;83.80
61253;DHT22;47127;47.516;8.596;2022-08-07T15:45:13;27.10;82.70
61253;DHT22;47127;47.516;8.596;2022-08-07T15:47:47;27.50;81.40
61253;DHT22;47127;47.516;8.596;2022-08-07T15:50:15;27.60;80.70
61253;DHT22;47127;47.516;8.596;2022-08-07T15:52:44;27.70;80.10
61253;DHT22;47127;47.516;8.596;2022-08-07T15:55:13;28.10;80.30
61253;DHT22;47127;47.516;8.596;2022-08-07T15:57:43;28.10;79.70
61253;DHT22;47127;47.516;8.596;2022-08-07T16:00:11;28.10;79.90
61253;DHT22;47127;47.516;8.596;2022-08-07T16:02:44;28.40;79.00
61253;DHT22;47127;47.516;8.596;2022-08-07T16:05:17;28.40;78.20
61253;DHT22;47127;47.516;8.596;2022-08-07T16:08:10;28.80;77.20
61253;DHT22;47127;47.516;8.596;2022-08-07T16:10:37;28.70;77.60
61253;DHT22;47127;47.516;8.596;2022-08-07T16:16:21;28.80;76.80
61253;DHT22;47127;47.516;8.596;2022-08-07T16:24:27;28.20;77.10
61253;DHT22;47127;47.516;8.596;2022-08-07T16:27:02;28.50;76.40
61253;DHT22;47127;47.516;8.596;2022-08-07T16:32:31;28.50;76.70
61253;DHT22;47127;47.516;8.596;2022-08-07T16:35:22;27.60;77.20
61253;DHT22;47127;47.516;8.596;2022-08-07T16:40:43;26.90;79.30
61253;DHT22;47127;47.516;8.596;2022-08-07T16:43:49;26.90;79.30
61253;DHT22;47127;47.516;8.596;2022-08-07T16:46:45;26.80;80.20
61253;DHT22;47127;47.516;8.596;2022-08-07T16:49:39;26.70;81.60
61253;DHT22;47127;47.516;8.596;2022-08-07T16:55:23;26.20;83.40
61253;DHT22;47127;47.516;8.596;2022-08-07T16:58:00;26.20;82.70
61253;DHT22;47127;47.516;8.596;2022-08-07T17:00:49;26.30;82.40
61253;DHT22;47127;47.516;8.596;2022-08-07T17:03:26;26.40;82.80
61253;DHT22;47127;47.516;8.596;2022-08-07T17:06:08;26.20;82.20
61253;DHT22;47127;47.516;8.596;2022-08-07T17:08:42;26.10;82.80
61253;DHT22;47127;47.516;8.596;2022-08-07T17:11:13;25.90;83.20
61253;DHT22;47127;47.516;8.596;2022-08-07T17:14:04;25.90;83.50
61253;DHT22;47127;47.516;8.596;2022-08-07T17:16:51;25.80;83.70
61253;DHT22;47127;47.516;8.596;2022-08-07T17:19:36;25.70;84.00
61253;DHT22;47127;47.516;8.596;2022-08-07T17:22:15;25.70;84.10
61253;DHT22;47127;47.516;8.596;2022-08-07T17:24:48;25.60;84.00
61253;DHT22;47127;47.516;8.596;2022-08-07T17:27:20;25.60;84.00
61253;DHT22;47127;47.516;8.596;2022-08-07T17:32:58;25.50;84.00
61253;DHT22;47127;47.516;8.596;2022-08-07T17:35:34;25.30;84.50
61253;DHT22;47127;47.516;8.596;2022-08-07T17:43:37;25.00;85.50
61253;DHT22;47127;47.516;8.596;2022-08-07T17:46:11;24.80;85.80
61253;DHT22;47127;47.516;8.596;2022-08-07T17:48:56;24.80;86.10
61253;DHT22;47127;47.516;8.596;2022-08-07T17:51:33;24.70;86.60
61253;DHT22;47127;47.516;8.596;2022-08-07T17:54:14;24.60;87.30
61253;DHT22;47127;47.516;8.596;2022-08-07T17:56:50;24.60;88.50
61253;DHT22;47127;47.516;8.596;2022-08-07T17:59:30;24.40;88.20
61253;DHT22;47127;47.516;8.596;2022-08-07T18:02:03;24.50;88.10
61253;DHT22;47127;47.516;8.596;2022-08-07T18:05:03;24.50;87.60
61253;DHT22;47127;47.516;8.596;2022-08-07T18:15:29;24.30;89.30
61253;DHT22;47127;47.516;8.596;2022-08-07T18:18:12;24.40;90.00
61253;DHT22;47127;47.516;8.596;2022-08-07T18:20:59;25.60;87.50
61253;DHT22;47127;47.516;8.596;2022-08-07T18:26:22;28.10;79.40
61253;DHT22;47127;47.516;8.596;2022-08-07T18:29:33;27.20;80.70
61253;DHT22;47127;47.516;8.596;2022-08-07T18:37:28;24.40;88.00
61253;DHT22;47127;47.516;8.596;2022-08-07T18:40:06;24.00;89.80
61253;DHT22;47127;47.516;8.596;2022-08-07T18:42:45;23.80;91.00
61253;DHT22;47127;47.516;8.596;2022-08-07T18:45:22;23.60;91.70
61253;DHT22;47127;47.516;8.596;2022-08-07T18:56:13;22.90;92.50
61253;DHT22;47127;47.516;8.596;2022-08-07T19:02:09;22.80;93.30
61253;DHT22;47127;47.516;8.596;2022-08-07T19:04:58;22.80;93.50
61253;DHT22;47127;47.516;8.596;2022-08-07T19:07:33;22.60;94.10
61253;DHT22;47127;47.516;8.596;2022-08-07T19:10:04;22.40;94.80